sensor_id;sensor_type;location;lat;lon;timestamp;P1;durP1;ratioP1;P2;durP2;ratioP2
7661;SDS011;30314;48.184;11.510;2023-10-19T00:00:20;23.77;;;14.00;;
7661;SDS011;30314;48.184;11.510;2023-10-19T00:02:49;24.73;;;13.13;;
7661;SDS011;30314;48.184;11.510;2023-10-19T00:05:21;23.60;;;15.10;;
7661;SDS011;30314;48.184;11.510;2023-10-19T00:07:47;25.23;;;15.47;;
7661;SDS011;30314;48.184;11.510;2023-10-19T00:10:14;24.93;;;14.67;;
7661;SDS011;30314;48.184;11.510;2023-10-19T00:12:42;25.27;;;15.97;;
7661;SDS011;30314;48.184;11.510;2023-10-19T00:15:10;28.93;;;15.60;;
7661;SDS011;30314;48.184;11.510;2023-10-19T00:17:38;26.57;;;15.70;;
7661;SDS011;30314;48.184;11.510;2023-10-19T00:20:06;25.20;;;15.63;;
7661;SDS011;30314;48.184;11.510;2023-10-19T00:22:56;21.20;;;14.37;;
7661;SDS011;30314;48.184;11.510;2023-10-19T00:25:24;23.17;;;13.80;;
7661;SDS011;30314;48.184;11.510;2023-10-19T00:27:52;24.27;;;16.40;;
7661;SDS011;30314;48.184;11.510;2023-10-19T00:30:19;26.43;;;15.43;;
7661;SDS011;30314;48.184;11.510;2023-10-19T00:32:49;23.40;;;15.60;;
7661;SDS011;30314;48.184;11.510;2023-10-19T00:35:17;26.50;;;15.70;;
7661;SDS011;30314;48.184;11.510;2023-10-19T00:38:02;24.30;;;16.23;;
7661;SDS011;30314;48.184;11.510;2023-10-19T00:40:53;25.80;;;15.13;;
7661;SDS011;30314;48.184;11.510;2023-10-19T00:43:25;25.93;;;15.57;;
7661;SDS011;30314;48.184;11.510;2023-10-19T00:46:09;26.47;;;16.60;;
7661;SDS011;30314;48.184;11.510;2023-10-19T00:48:53;25.37;;;14.80;;
7661;SDS011;30314;48.184;11.510;2023-10-19T00:51:22;24.77;;;15.57;;
7661;SDS011;30314;48.184;11.510;2023-10-19T00:53:54;27.20;;;15.57;;
7661;SDS011;30314;48.184;11.510;2023-10-19T00:56:23;31.47;;;16.30;;
7661;SDS011;30314;48.184;11.510;2023-10-19T00:58:53;27.13;;;16.00;;
7661;SDS011;30314;48.184;11.510;2023-10-19T01:01:26;30.00;;;17.80;;
7661;SDS011;30314;48.184;11.510;2023-10-19T01:03:58;26.83;;;16.93;;
7661;SDS011;30314;48.184;11.510;2023-10-19T01:06:25;24.90;;;15.90;;
7661;SDS011;30314;48.184;11.510;2023-10-19T01:08:52;25.63;;;16.33;;
7661;SDS011;30314;48.184;11.510;2023-10-19T01:11:19;28.50;;;15.90;;
7661;SDS011;30314;48.184;11.510;2023-10-19T01:13:47;26.97;;;16.20;;
7661;SDS011;30314;48.184;11.510;2023-10-19T01:16:14;29.63;;;17.80;;
7661;SDS011;30314;48.184;11.510;2023-10-19T01:18:48;28.03;;;18.20;;
7661;SDS011;30314;48.184;11.510;2023-10-19T01:21:24;27.13;;;16.57;;
7661;SDS011;30314;48.184;11.510;2023-10-19T01:24:07;30.03;;;15.77;;
7661;SDS011;30314;48.184;11.510;2023-10-19T01:26:35;27.50;;;17.57;;
7661;SDS011;30314;48.184;11.510;2023-10-19T01:29:04;23.97;;;16.00;;
7661;SDS011;30314;48.184;11.510;2023-10-19T01:31:43;27.77;;;17.03;;
7661;SDS011;30314;48.184;11.510;2023-10-19T01:34:22;28.90;;;16.80;;
7661;SDS011;30314;48.184;11.510;2023-10-19T01:36:49;27.77;;;16.23;;
7661;SDS011;30314;48.184;11.510;2023-10-19T01:39:22;26.70;;;16.57;;
7661;SDS011;30314;48.184;11.510;2023-10-19T01:41:48;26.80;;;15.93;;
7661;SDS011;30314;48.184;11.510;2023-10-19T01:44:17;27.40;;;15.83;;
7661;SDS011;30314;48.184;11.510;2023-10-19T01:46:47;30.77;;;16.53;;
7661;SDS011;30314;48.184;11.510;2023-10-19T01:49:14;21.47;;;15.00;;
7661;SDS011;30314;48.184;11.510;2023-10-19T01:51:52;24.87;;;14.90;;
7661;SDS011;30314;48.184;11.510;2023-10-19T01:54:23;23.20;;;14.60;;
7661;SDS011;30314;48.184;11.510;2023-10-19T01:56:54;27.87;;;16.87;;
7661;SDS011;30314;48.184;11.510;2023-10-19T01:59:23;26.87;;;16.07;;
7661;SDS011;30314;48.184;11.510;2023-10-19T02:01:56;23.20;;;14.87;;
7661;SDS011;30314;48.184;11.510;2023-10-19T02:04:24;29.10;;;17.27;;
7661;SDS011;30314;48.184;11.510;2023-10-19T02:06:52;29.53;;;16.10;;
7661;SDS011;30314;48.184;11.510;2023-10-19T02:09:20;29.80;;;17.57;;
7661;SDS011;30314;48.184;11.510;2023-10-19T02:11:53;29.43;;;17.97;;
7661;SDS011;30314;48.184;11.510;2023-10-19T02:14:25;29.03;;;16.97;;
7661;SDS011;30314;48.184;11.510;2023-10-19T02:16:53;31.67;;;17.07;;
7661;SDS011;30314;48.184;11.510;2023-10-19T02:19:26;32.30;;;16.70;;
7661;SDS011;30314;48.184;11.510;2023-10-19T02:21:54;27.53;;;15.93;;
7661;SDS011;30314;48.184;11.510;2023-10-19T02:24:26;33.40;;;18.33;;
7661;SDS011;30314;48.184;11.510;2023-10-19T02:26:54;27.70;;;17.37;;
7661;SDS011;30314;48.184;11.510;2023-10-19T02:29:22;28.67;;;16.33;;
7661;SDS011;30314;48.184;11.510;2023-10-19T02:31:49;25.80;;;16.17;;
7661;SDS011;30314;48.184;11.510;2023-10-19T02:34:20;32.90;;;17.83;;
7661;SDS011;30314;48.184;11.510;2023-10-19T02:36:49;27.90;;;16.43;;
7661;SDS011;30314;48.184;11.510;2023-10-19T02:39:16;26.30;;;15.63;;
7661;SDS011;30314;48.184;11.510;2023-10-19T02:41:48;25.50;;;16.43;;
7661;SDS011;30314;48.184;11.510;2023-10-19T02:44:16;25.93;;;15.97;;
7661;SDS011;30314;48.184;11.510;2023-10-19T02:49:14;24.00;;;16.20;;
7661;SDS011;30314;48.184;11.510;2023-10-19T02:51:46;26.20;;;17.30;;
7661;SDS011;30314;48.184;11.510;2023-10-19T02:54:18;28.17;;;16.63;;
7661;SDS011;30314;48.184;11.510;2023-10-19T02:56:54;26.43;;;15.37;;
7661;SDS011;30314;48.184;11.510;2023-10-19T02:59:23;26.00;;;15.93;;
7661;SDS011;30314;48.184;11.510;2023-10-19T03:01:58;25.43;;;15.00;;
7661;SDS011;30314;48.184;11.510;2023-10-19T03:04:39;26.87;;;15.80;;
7661;SDS011;30314;48.184;11.510;2023-10-19T03:07:08;28.00;;;16.80;;
7661;SDS011;30314;48.184;11.510;2023-10-19T03:09:36;24.90;;;16.20;;
7661;SDS011;30314;48.184;11.510;2023-10-19T03:12:03;24.90;;;15.30;;
7661;SDS011;30314;48.184;11.510;2023-10-19T03:14:31;23.47;;;15.50;;
7661;SDS011;30314;48.184;11.510;2023-10-19T03:16:59;25.63;;;15.00;;
7661;SDS011;30314;48.184;11.510;2023-10-19T03:19:27;26.83;;;16.47;;
7661;SDS011;30314;48.184;11.510;2023-10-19T03:21:54;29.50;;;16.27;;
7661;SDS011;30314;48.184;11.510;2023-10-19T03:24:27;27.03;;;15.77;;
7661;SDS011;30314;48.184;11.510;2023-10-19T03:27:07;28.73;;;16.33;;
7661;SDS011;30314;48.184;11.510;2023-10-19T03:29:50;29.23;;;15.70;;
7661;SDS011;30314;48.184;11.510;2023-10-19T03:32:22;24.83;;;15.00;;
7661;SDS011;30314;48.184;11.510;2023-10-19T03:34:59;22.53;;;13.33;;
7661;SDS011;30314;48.184;11.510;2023-10-19T03:37:27;25.17;;;15.50;;
7661;SDS011;30314;48.184;11.510;2023-10-19T03:39:58;29.60;;;18.43;;
7661;SDS011;30314;48.184;11.510;2023-10-19T03:42:25;23.07;;;14.70;;
7661;SDS011;30314;48.184;11.510;2023-10-19T03:44:59;23.30;;;15.17;;
7661;SDS011;30314;48.184;11.510;2023-10-19T03:47:28;23.47;;;14.50;;
7661;SDS011;30314;48.184;11.510;2023-10-19T03:50:05;22.70;;;14.40;;
7661;SDS011;30314;48.184;11.510;2023-10-19T03:52:37;23.63;;;14.73;;
7661;SDS011;30314;48.184;11.510;2023-10-19T03:55:04;23.40;;;14.60;;
7661;SDS011;30314;48.184;11.510;2023-10-19T03:57:37;25.77;;;15.00;;
7661;SDS011;30314;48.184;11.510;2023-10-19T04:00:08;24.07;;;14.60;;
7661;SDS011;30314;48.184;11.510;2023-10-19T04:02:42;21.73;;;15.40;;
7661;SDS011;30314;48.184;11.510;2023-10-19T04:05:09;23.47;;;13.90;;
7661;SDS011;30314;48.184;11.510;2023-10-19T04:07:40;23.67;;;12.67;;
7661;SDS011;30314;48.184;11.510;2023-10-19T04:10:10;19.37;;;13.30;;
7661;SDS011;30314;48.184;11.510;2023-10-19T04:12:56;20.17;;;13.20;;
7661;SDS011;30314;48.184;11.510;2023-10-19T04:15:26;20.03;;;13.13;;
7661;SDS011;30314;48.184;11.510;2023-10-19T04:17:55;17.10;;;11.40;;
7661;SDS011;30314;48.184;11.510;2023-10-19T04:20:25;18.30;;;11.83;;
7661;SDS011;30314;48.184;11.510;2023-10-19T04:22:51;23.83;;;14.13;;
7661;SDS011;30314;48.184;11.510;2023-10-19T04:25:19;20.67;;;13.10;;
7661;SDS011;30314;48.184;11.510;2023-10-19T04:27:47;19.17;;;13.63;;
7661;SDS011;30314;48.184;11.510;2023-10-19T04:30:15;22.37;;;13.83;;
7661;SDS011;30314;48.184;11.510;2023-10-19T04:32:43;20.57;;;12.73;;
7661;SDS011;30314;48.184;11.510;2023-10-19T04:35:12;20.60;;;13.23;;
7661;SDS011;30314;48.184;11.510;2023-10-19T04:38:00;22.43;;;12.90;;
7661;SDS011;30314;48.184;11.510;2023-10-19T04:40:27;18.67;;;12.53;;
7661;SDS011;30314;48.184;11.510;2023-10-19T04:42:54;20.80;;;12.90;;
7661;SDS011;30314;48.184;11.510;2023-10-19T04:45:21;21.03;;;12.50;;
7661;SDS011;30314;48.184;11.510;2023-10-19T04:47:51;19.43;;;12.30;;
7661;SDS011;30314;48.184;11.510;2023-10-19T04:50:19;20.93;;;12.93;;
7661;SDS011;30314;48.184;11.510;2023-10-19T04:52:46;19.83;;;11.73;;
7661;SDS011;30314;48.184;11.510;2023-10-19T04:55:14;25.30;;;14.57;;
7661;SDS011;30314;48.184;11.510;2023-10-19T04:57:40;23.43;;;14.03;;
7661;SDS011;30314;48.184;11.510;2023-10-19T05:00:07;18.60;;;11.60;;
7661;SDS011;30314;48.184;11.510;2023-10-19T05:02:40;23.10;;;13.20;;
7661;SDS011;30314;48.184;11.510;2023-10-19T05:05:07;20.43;;;12.50;;
7661;SDS011;30314;48.184;11.510;2023-10-19T05:07:35;19.10;;;13.00;;
7661;SDS011;30314;48.184;11.510;2023-10-19T05:10:02;15.40;;;11.10;;
7661;SDS011;30314;48.184;11.510;2023-10-19T05:12:29;19.63;;;11.50;;
7661;SDS011;30314;48.184;11.510;2023-10-19T05:14:55;18.10;;;11.30;;
7661;SDS011;30314;48.184;11.510;2023-10-19T05:17:22;19.83;;;11.90;;
7661;SDS011;30314;48.184;11.510;2023-10-19T05:19:50;16.30;;;11.07;;
7661;SDS011;30314;48.184;11.510;2023-10-19T05:22:16;19.33;;;13.07;;
7661;SDS011;30314;48.184;11.510;2023-10-19T05:24:43;19.63;;;11.67;;
7661;SDS011;30314;48.184;11.510;2023-10-19T05:27:10;17.67;;;11.33;;
7661;SDS011;30314;48.184;11.510;2023-10-19T05:29:41;17.97;;;11.13;;
7661;SDS011;30314;48.184;11.510;2023-10-19T05:32:08;17.30;;;11.63;;
7661;SDS011;30314;48.184;11.510;2023-10-19T05:34:36;20.27;;;11.93;;
7661;SDS011;30314;48.184;11.510;2023-10-19T05:37:03;19.73;;;11.47;;
7661;SDS011;30314;48.184;11.510;2023-10-19T05:39:31;15.20;;;11.00;;
7661;SDS011;30314;48.184;11.510;2023-10-19T05:42:00;17.10;;;10.47;;
7661;SDS011;30314;48.184;11.510;2023-10-19T05:44:28;17.80;;;11.73;;
7661;SDS011;30314;48.184;11.510;2023-10-19T05:46:57;17.50;;;11.77;;
7661;SDS011;30314;48.184;11.510;2023-10-19T05:49:25;17.33;;;10.83;;
7661;SDS011;30314;48.184;11.510;2023-10-19T05:51:52;12.23;;;9.40;;
7661;SDS011;30314;48.184;11.510;2023-10-19T05:54:19;14.83;;;11.00;;
7661;SDS011;30314;48.184;11.510;2023-10-19T05:56:46;17.70;;;10.53;;
7661;SDS011;30314;48.184;11.510;2023-10-19T05:59:12;14.30;;;10.50;;
7661;SDS011;30314;48.184;11.510;2023-10-19T06:01:39;13.00;;;9.63;;
7661;SDS011;30314;48.184;11.510;2023-10-19T06:04:07;15.07;;;9.33;;
7661;SDS011;30314;48.184;11.510;2023-10-19T06:06:34;13.70;;;9.77;;
7661;SDS011;30314;48.184;11.510;2023-10-19T06:09:02;14.27;;;9.20;;
7661;SDS011;30314;48.184;11.510;2023-10-19T06:11:31;14.90;;;9.70;;
7661;SDS011;30314;48.184;11.510;2023-10-19T06:13:59;12.80;;;9.07;;
7661;SDS011;30314;48.184;11.510;2023-10-19T06:16:26;14.10;;;8.77;;
7661;SDS011;30314;48.184;11.510;2023-10-19T06:18:54;15.13;;;8.87;;
7661;SDS011;30314;48.184;11.510;2023-10-19T06:21:21;15.07;;;9.30;;
7661;SDS011;30314;48.184;11.510;2023-10-19T06:23:49;13.87;;;8.87;;
7661;SDS011;30314;48.184;11.510;2023-10-19T06:26:17;15.20;;;10.67;;
7661;SDS011;30314;48.184;11.510;2023-10-19T06:28:43;13.60;;;9.30;;
7661;SDS011;30314;48.184;11.510;2023-10-19T06:31:10;21.40;;;10.67;;
7661;SDS011;30314;48.184;11.510;2023-10-19T06:33:37;15.13;;;9.50;;
7661;SDS011;30314;48.184;11.510;2023-10-19T06:36:08;20.03;;;11.37;;
7661;SDS011;30314;48.184;11.510;2023-10-19T06:38:35;15.80;;;9.17;;
7661;SDS011;30314;48.184;11.510;2023-10-19T06:41:12;15.63;;;10.20;;
7661;SDS011;30314;48.184;11.510;2023-10-19T06:43:39;13.20;;;9.17;;
7661;SDS011;30314;48.184;11.510;2023-10-19T06:46:07;13.33;;;9.10;;
7661;SDS011;30314;48.184;11.510;2023-10-19T06:48:38;12.83;;;8.57;;
7661;SDS011;30314;48.184;11.510;2023-10-19T06:51:06;14.13;;;10.00;;
7661;SDS011;30314;48.184;11.510;2023-10-19T06:53:33;16.93;;;9.93;;
7661;SDS011;30314;48.184;11.510;2023-10-19T06:56:00;18.70;;;12.27;;
7661;SDS011;30314;48.184;11.510;2023-10-19T06:58:27;20.43;;;12.17;;
7661;SDS011;30314;48.184;11.510;2023-10-19T07:00:54;19.70;;;10.80;;
7661;SDS011;30314;48.184;11.510;2023-10-19T07:03:26;18.10;;;11.40;;
7661;SDS011;30314;48.184;11.510;2023-10-19T07:05:54;15.33;;;11.10;;
7661;SDS011;30314;48.184;11.510;2023-10-19T07:08:22;12.90;;;9.00;;
7661;SDS011;30314;48.184;11.510;2023-10-19T07:10:49;16.10;;;9.57;;
7661;SDS011;30314;48.184;11.510;2023-10-19T07:13:16;14.47;;;9.57;;
7661;SDS011;30314;48.184;11.510;2023-10-19T07:15:47;17.23;;;9.60;;
7661;SDS011;30314;48.184;11.510;2023-10-19T07:18:15;13.90;;;10.40;;
7661;SDS011;30314;48.184;11.510;2023-10-19T07:20:43;14.80;;;10.70;;
7661;SDS011;30314;48.184;11.510;2023-10-19T07:23:09;16.83;;;10.40;;
7661;SDS011;30314;48.184;11.510;2023-10-19T07:25:36;16.00;;;11.40;;
7661;SDS011;30314;48.184;11.510;2023-10-19T07:28:10;33.80;;;14.77;;
7661;SDS011;30314;48.184;11.510;2023-10-19T07:30:39;40.70;;;13.97;;
7661;SDS011;30314;48.184;11.510;2023-10-19T07:33:07;51.47;;;16.60;;
7661;SDS011;30314;48.184;11.510;2023-10-19T07:35:36;37.93;;;16.43;;
7661;SDS011;30314;48.184;11.510;2023-10-19T07:38:08;72.83;;;20.57;;
7661;SDS011;30314;48.184;11.510;2023-10-19T07:40:36;70.70;;;21.53;;
7661;SDS011;30314;48.184;11.510;2023-10-19T07:43:03;54.97;;;17.90;;
7661;SDS011;30314;48.184;11.510;2023-10-19T07:45:33;30.33;;;13.00;;
7661;SDS011;30314;48.184;11.510;2023-10-19T07:48:01;30.20;;;13.77;;
7661;SDS011;30314;48.184;11.510;2023-10-19T07:50:36;39.13;;;16.30;;
7661;SDS011;30314;48.184;11.510;2023-10-19T07:53:05;40.40;;;15.60;;
7661;SDS011;30314;48.184;11.510;2023-10-19T07:55:32;30.10;;;13.70;;
7661;SDS011;30314;48.184;11.510;2023-10-19T07:57:59;28.97;;;13.33;;
7661;SDS011;30314;48.184;11.510;2023-10-19T08:00:26;23.50;;;11.77;;
7661;SDS011;30314;48.184;11.510;2023-10-19T08:02:55;23.50;;;12.53;;
7661;SDS011;30314;48.184;11.510;2023-10-19T08:05:22;23.83;;;12.20;;
7661;SDS011;30314;48.184;11.510;2023-10-19T08:07:49;17.20;;;12.50;;
7661;SDS011;30314;48.184;11.510;2023-10-19T08:10:16;24.53;;;12.73;;
7661;SDS011;30314;48.184;11.510;2023-10-19T08:12:46;22.47;;;13.70;;
7661;SDS011;30314;48.184;11.510;2023-10-19T08:15:14;21.43;;;12.50;;
7661;SDS011;30314;48.184;11.510;2023-10-19T08:17:43;20.30;;;11.33;;
7661;SDS011;30314;48.184;11.510;2023-10-19T08:20:13;22.30;;;12.63;;
7661;SDS011;30314;48.184;11.510;2023-10-19T08:22:53;20.30;;;11.47;;
7661;SDS011;30314;48.184;11.510;2023-10-19T08:25:24;21.40;;;11.43;;
7661;SDS011;30314;48.184;11.510;2023-10-19T08:28:09;19.03;;;12.20;;
7661;SDS011;30314;48.184;11.510;2023-10-19T08:30:38;20.23;;;12.47;;
7661;SDS011;30314;48.184;11.510;2023-10-19T08:33:08;21.90;;;12.97;;
7661;SDS011;30314;48.184;11.510;2023-10-19T08:35:34;21.97;;;12.27;;
7661;SDS011;30314;48.184;11.510;2023-10-19T08:38:02;21.53;;;12.17;;
7661;SDS011;30314;48.184;11.510;2023-10-19T08:40:36;21.33;;;13.10;;
7661;SDS011;30314;48.184;11.510;2023-10-19T08:43:07;21.17;;;12.10;;
7661;SDS011;30314;48.184;11.510;2023-10-19T08:45:39;20.77;;;12.33;;
7661;SDS011;30314;48.184;11.510;2023-10-19T08:48:08;22.73;;;12.40;;
7661;SDS011;30314;48.184;11.510;2023-10-19T08:50:35;23.10;;;12.27;;
7661;SDS011;30314;48.184;11.510;2023-10-19T08:53:02;22.10;;;12.07;;
7661;SDS011;30314;48.184;11.510;2023-10-19T08:55:30;23.97;;;12.03;;
7661;SDS011;30314;48.184;11.510;2023-10-19T08:58:15;25.20;;;12.80;;
7661;SDS011;30314;48.184;11.510;2023-10-19T09:00:50;23.70;;;13.00;;
7661;SDS011;30314;48.184;11.510;2023-10-19T09:03:23;20.40;;;12.67;;
7661;SDS011;30314;48.184;11.510;2023-10-19T09:05:51;18.67;;;11.53;;
7661;SDS011;30314;48.184;11.510;2023-10-19T09:08:18;23.77;;;15.00;;
7661;SDS011;30314;48.184;11.510;2023-10-19T09:10:47;21.47;;;12.57;;
7661;SDS011;30314;48.184;11.510;2023-10-19T09:13:15;20.87;;;13.37;;
7661;SDS011;30314;48.184;11.510;2023-10-19T09:15:46;19.87;;;12.73;;
7661;SDS011;30314;48.184;11.510;2023-10-19T09:18:16;22.57;;;15.13;;
7661;SDS011;30314;48.184;11.510;2023-10-19T09:20:48;26.80;;;15.80;;
7661;SDS011;30314;48.184;11.510;2023-10-19T09:23:19;26.27;;;14.83;;
7661;SDS011;30314;48.184;11.510;2023-10-19T09:25:50;25.93;;;15.70;;
7661;SDS011;30314;48.184;11.510;2023-10-19T09:28:19;23.80;;;15.07;;
7661;SDS011;30314;48.184;11.510;2023-10-19T09:30:48;21.67;;;13.27;;
7661;SDS011;30314;48.184;11.510;2023-10-19T09:33:19;27.00;;;13.27;;
7661;SDS011;30314;48.184;11.510;2023-10-19T09:35:48;39.43;;;15.37;;
7661;SDS011;30314;48.184;11.510;2023-10-19T09:38:19;30.87;;;14.00;;
7661;SDS011;30314;48.184;11.510;2023-10-19T09:40:51;28.20;;;15.00;;
7661;SDS011;30314;48.184;11.510;2023-10-19T09:43:22;23.03;;;13.87;;
7661;SDS011;30314;48.184;11.510;2023-10-19T09:45:57;24.63;;;13.27;;
7661;SDS011;30314;48.184;11.510;2023-10-19T09:48:27;26.50;;;14.87;;
7661;SDS011;30314;48.184;11.510;2023-10-19T09:50:55;27.03;;;15.43;;
7661;SDS011;30314;48.184;11.510;2023-10-19T09:53:25;26.17;;;16.17;;
7661;SDS011;30314;48.184;11.510;2023-10-19T09:55:56;29.43;;;14.77;;
7661;SDS011;30314;48.184;11.510;2023-10-19T09:58:28;18.07;;;13.40;;
7661;SDS011;30314;48.184;11.510;2023-10-19T10:00:58;23.73;;;12.70;;
7661;SDS011;30314;48.184;11.510;2023-10-19T10:06:15;25.40;;;13.33;;
7661;SDS011;30314;48.184;11.510;2023-10-19T10:08:44;17.97;;;11.83;;
7661;SDS011;30314;48.184;11.510;2023-10-19T10:13:53;15.97;;;9.90;;
7661;SDS011;30314;48.184;11.510;2023-10-19T10:16:23;14.93;;;9.40;;
7661;SDS011;30314;48.184;11.510;2023-10-19T10:18:55;16.40;;;9.27;;
7661;SDS011;30314;48.184;11.510;2023-10-19T10:21:28;13.90;;;9.63;;
7661;SDS011;30314;48.184;11.510;2023-10-19T10:23:56;15.23;;;10.17;;
7661;SDS011;30314;48.184;11.510;2023-10-19T10:26:24;17.00;;;9.17;;
7661;SDS011;30314;48.184;11.510;2023-10-19T10:29:08;9.60;;;8.10;;
7661;SDS011;30314;48.184;11.510;2023-10-19T10:31:47;11.70;;;8.70;;
7661;SDS011;30314;48.184;11.510;2023-10-19T10:34:57;17.47;;;9.90;;
7661;SDS011;30314;48.184;11.510;2023-10-19T10:37:05;14.13;;;7.90;;
7661;SDS011;30314;48.184;11.510;2023-10-19T10:39:35;12.80;;;7.30;;
7661;SDS011;30314;48.184;11.510;2023-10-19T10:42:04;13.67;;;8.20;;
7661;SDS011;30314;48.184;11.510;2023-10-19T10:49:47;14.93;;;9.20;;
7661;SDS011;30314;48.184;11.510;2023-10-19T10:52:25;20.23;;;8.87;;
7661;SDS011;30314;48.184;11.510;2023-10-19T10:54:56;11.90;;;7.73;;
7661;SDS011;30314;48.184;11.510;2023-10-19T10:57:24;19.80;;;8.10;;
7661;SDS011;30314;48.184;11.510;2023-10-19T11:00:02;16.00;;;9.00;;
7661;SDS011;30314;48.184;11.510;2023-10-19T11:02:42;13.50;;;9.00;;
7661;SDS011;30314;48.184;11.510;2023-10-19T11:05:12;12.20;;;8.70;;
7661;SDS011;30314;48.184;11.510;2023-10-19T11:10:44;18.77;;;9.83;;
7661;SDS011;30314;48.184;11.510;2023-10-19T11:13:22;17.33;;;9.37;;
7661;SDS011;30314;48.184;11.510;2023-10-19T11:15:51;22.80;;;9.73;;
7661;SDS011;30314;48.184;11.510;2023-10-19T11:20:55;12.30;;;8.90;;
7661;SDS011;30314;48.184;11.510;2023-10-19T11:26:02;14.97;;;10.17;;
7661;SDS011;30314;48.184;11.510;2023-10-19T11:28:31;17.37;;;9.83;;
7661;SDS011;30314;48.184;11.510;2023-10-19T11:31:16;15.30;;;9.67;;
7661;SDS011;30314;48.184;11.510;2023-10-19T11:33:46;11.87;;;8.87;;
7661;SDS011;30314;48.184;11.510;2023-10-19T11:36:17;16.50;;;8.53;;
7661;SDS011;30314;48.184;11.510;2023-10-19T11:38:46;14.23;;;8.53;;
7661;SDS011;30314;48.184;11.510;2023-10-19T11:41:15;12.23;;;7.00;;
7661;SDS011;30314;48.184;11.510;2023-10-19T11:43:43;13.47;;;7.10;;
7661;SDS011;30314;48.184;11.510;2023-10-19T11:46:11;10.60;;;6.77;;
7661;SDS011;30314;48.184;11.510;2023-10-19T11:48:38;14.77;;;7.80;;
7661;SDS011;30314;48.184;11.510;2023-10-19T11:51:06;14.07;;;7.70;;
7661;SDS011;30314;48.184;11.510;2023-10-19T11:53:33;11.90;;;8.07;;
7661;SDS011;30314;48.184;11.510;2023-10-19T11:56:04;15.33;;;7.77;;
7661;SDS011;30314;48.184;11.510;2023-10-19T11:58:35;13.43;;;8.23;;
7661;SDS011;30314;48.184;11.510;2023-10-19T12:01:04;18.83;;;8.80;;
7661;SDS011;30314;48.184;11.510;2023-10-19T12:03:34;14.10;;;8.07;;
7661;SDS011;30314;48.184;11.510;2023-10-19T12:06:03;15.60;;;8.00;;
7661;SDS011;30314;48.184;11.510;2023-10-19T12:08:35;17.57;;;9.30;;
7661;SDS011;30314;48.184;11.510;2023-10-19T12:11:03;15.77;;;9.27;;
7661;SDS011;30314;48.184;11.510;2023-10-19T12:13:30;14.50;;;8.40;;
7661;SDS011;30314;48.184;11.510;2023-10-19T12:15:58;11.97;;;7.10;;
7661;SDS011;30314;48.184;11.510;2023-10-19T12:18:24;15.37;;;7.67;;
7661;SDS011;30314;48.184;11.510;2023-10-19T12:20:55;11.83;;;7.37;;
7661;SDS011;30314;48.184;11.510;2023-10-19T12:23:25;9.30;;;6.37;;
7661;SDS011;30314;48.184;11.510;2023-10-19T12:25:53;12.27;;;5.70;;
7661;SDS011;30314;48.184;11.510;2023-10-19T12:28:23;5.57;;;4.10;;
7661;SDS011;30314;48.184;11.510;2023-10-19T12:30:51;6.67;;;4.00;;
7661;SDS011;30314;48.184;11.510;2023-10-19T12:33:18;7.03;;;3.97;;
7661;SDS011;30314;48.184;11.510;2023-10-19T12:35:46;7.03;;;4.93;;
7661;SDS011;30314;48.184;11.510;2023-10-19T12:38:25;6.83;;;4.27;;
7661;SDS011;30314;48.184;11.510;2023-10-19T12:40:53;11.13;;;5.90;;
7661;SDS011;30314;48.184;11.510;2023-10-19T12:43:20;9.10;;;5.97;;
7661;SDS011;30314;48.184;11.510;2023-10-19T12:45:51;8.23;;;5.23;;
7661;SDS011;30314;48.184;11.510;2023-10-19T12:48:20;7.07;;;4.73;;
7661;SDS011;30314;48.184;11.510;2023-10-19T12:50:47;11.53;;;4.63;;
7661;SDS011;30314;48.184;11.510;2023-10-19T12:53:13;7.80;;;4.60;;
7661;SDS011;30314;48.184;11.510;2023-10-19T12:55:40;14.37;;;6.90;;
7661;SDS011;30314;48.184;11.510;2023-10-19T12:58:10;10.70;;;6.30;;
7661;SDS011;30314;48.184;11.510;2023-10-19T13:00:38;10.13;;;5.40;;
7661;SDS011;30314;48.184;11.510;2023-10-19T13:03:07;8.37;;;5.27;;
7661;SDS011;30314;48.184;11.510;2023-10-19T13:05:37;6.30;;;3.93;;
7661;SDS011;30314;48.184;11.510;2023-10-19T13:08:07;3.50;;;2.50;;
7661;SDS011;30314;48.184;11.510;2023-10-19T13:10:35;7.17;;;3.03;;
7661;SDS011;30314;48.184;11.510;2023-10-19T13:13:05;7.00;;;3.20;;
7661;SDS011;30314;48.184;11.510;2023-10-19T13:15:35;7.27;;;2.80;;
7661;SDS011;30314;48.184;11.510;2023-10-19T13:18:02;3.97;;;2.63;;
7661;SDS011;30314;48.184;11.510;2023-10-19T13:20:32;9.50;;;2.00;;
7661;SDS011;30314;48.184;11.510;2023-10-19T13:23:01;6.90;;;2.73;;
7661;SDS011;30314;48.184;11.510;2023-10-19T13:25:33;3.93;;;2.63;;
7661;SDS011;30314;48.184;11.510;2023-10-19T13:28:26;5.83;;;3.47;;
7661;SDS011;30314;48.184;11.510;2023-10-19T13:30:53;4.93;;;3.30;;
7661;SDS011;30314;48.184;11.510;2023-10-19T13:33:21;5.93;;;3.10;;
7661;SDS011;30314;48.184;11.510;2023-10-19T13:35:49;4.53;;;3.13;;
7661;SDS011;30314;48.184;11.510;2023-10-19T13:38:16;5.43;;;2.73;;
7661;SDS011;30314;48.184;11.510;2023-10-19T13:40:46;5.37;;;2.70;;
7661;SDS011;30314;48.184;11.510;2023-10-19T13:43:13;7.13;;;2.57;;
7661;SDS011;30314;48.184;11.510;2023-10-19T13:45:41;6.37;;;2.50;;
7661;SDS011;30314;48.184;11.510;2023-10-19T13:48:09;3.63;;;2.40;;
7661;SDS011;30314;48.184;11.510;2023-10-19T13:50:41;4.53;;;2.20;;
7661;SDS011;30314;48.184;11.510;2023-10-19T13:53:10;4.67;;;2.90;;
7661;SDS011;30314;48.184;11.510;2023-10-19T13:55:37;3.50;;;2.00;;
7661;SDS011;30314;48.184;11.510;2023-10-19T13:58:03;6.47;;;3.00;;
7661;SDS011;30314;48.184;11.510;2023-10-19T14:00:30;4.80;;;2.87;;
7661;SDS011;30314;48.184;11.510;2023-10-19T14:03:01;10.40;;;3.10;;
7661;SDS011;30314;48.184;11.510;2023-10-19T14:05:41;5.53;;;3.30;;
7661;SDS011;30314;48.184;11.510;2023-10-19T14:08:16;6.93;;;3.40;;
7661;SDS011;30314;48.184;11.510;2023-10-19T14:10:44;7.50;;;3.53;;
7661;SDS011;30314;48.184;11.510;2023-10-19T14:13:11;6.77;;;3.83;;
7661;SDS011;30314;48.184;11.510;2023-10-19T14:15:38;9.63;;;5.57;;
7661;SDS011;30314;48.184;11.510;2023-10-19T14:18:05;10.27;;;5.83;;
7661;SDS011;30314;48.184;11.510;2023-10-19T14:20:33;12.03;;;6.20;;
7661;SDS011;30314;48.184;11.510;2023-10-19T14:23:01;10.67;;;7.03;;
7661;SDS011;30314;48.184;11.510;2023-10-19T14:25:31;10.70;;;7.53;;
7661;SDS011;30314;48.184;11.510;2023-10-19T14:28:02;13.77;;;8.40;;
7661;SDS011;30314;48.184;11.510;2023-10-19T14:30:33;17.00;;;9.53;;
7661;SDS011;30314;48.184;11.510;2023-10-19T14:33:00;11.27;;;9.00;;
7661;SDS011;30314;48.184;11.510;2023-10-19T14:35:27;17.77;;;10.50;;
7661;SDS011;30314;48.184;11.510;2023-10-19T14:37:54;15.57;;;9.23;;
7661;SDS011;30314;48.184;11.510;2023-10-19T14:40:24;15.47;;;10.50;;
7661;SDS011;30314;48.184;11.510;2023-10-19T14:42:55;15.23;;;9.40;;
7661;SDS011;30314;48.184;11.510;2023-10-19T14:45:26;12.73;;;10.13;;
7661;SDS011;30314;48.184;11.510;2023-10-19T14:47:57;20.00;;;11.63;;
7661;SDS011;30314;48.184;11.510;2023-10-19T14:50:29;16.57;;;11.67;;
7661;SDS011;30314;48.184;11.510;2023-10-19T14:52:56;16.67;;;12.07;;
7661;SDS011;30314;48.184;11.510;2023-10-19T14:55:23;16.50;;;11.43;;
7661;SDS011;30314;48.184;11.510;2023-10-19T14:57:50;18.40;;;11.60;;
7661;SDS011;30314;48.184;11.510;2023-10-19T15:00:20;17.30;;;12.30;;
7661;SDS011;30314;48.184;11.510;2023-10-19T15:02:49;21.70;;;14.03;;
7661;SDS011;30314;48.184;11.510;2023-10-19T15:05:17;20.43;;;14.57;;